sensor_id;sensor_type;location;lat;lon;timestamp;temperature;humidity
21246;DHT22;10781;50.928;4.440;2023-06-26T00:00:52;24.20;99.90
21246;DHT22;10781;50.928;4.440;2023-06-26T00:03:18;24.20;99.90
21246;DHT22;10781;50.928;4.440;2023-06-26T00:05:43;24.20;99.90
21246;DHT22;10781;50.928;4.440;2023-06-26T00:08:09;24.20;99.90
21246;DHT22;10781;50.928;4.440;2023-06-26T00:10:35;24.10;99.90
21246;DHT22;10781;50.928;4.440;2023-06-26T00:13:00;24.00;99.90
21246;DHT22;10781;50.928;4.440;2023-06-26T00:15:27;23.90;99.90
21246;DHT22;10781;50.928;4.440;2023-06-26T00:17:57;23.80;99.90
21246;DHT22;10781;50.928;4.440;2023-06-26T00:20:22;23.90;99.90
21246;DHT22;10781;50.928;4.440;2023-06-26T00:22:50;23.80;99.90
21246;DHT22;10781;50.928;4.440;2023-06-26T00:25:16;23.70;99.90
21246;DHT22;10781;50.928;4.440;2023-06-26T00:27:41;23.70;99.90
21246;DHT22;10781;50.928;4.440;2023-06-26T00:30:08;23.80;99.90
21246;DHT22;10781;50.928;4.440;2023-06-26T00:32:34;23.80;99.90
21246;DHT22;10781;50.928;4.440;2023-06-26T00:34:59;23.70;99.90
21246;DHT22;10781;50.928;4.440;2023-06-26T00:37:25;23.70;99.90
21246;DHT22;10781;50.928;4.440;2023-06-26T00:39:50;23.60;99.90
21246;DHT22;10781;50.928;4.440;2023-06-26T00:42:16;23.50;99.90
21246;DHT22;10781;50.928;4.440;2023-06-26T00:44:42;23.60;99.90
21246;DHT22;10781;50.928;4.440;2023-06-26T00:47:08;23.50;99.90
21246;DHT22;10781;50.928;4.440;2023-06-26T00:49:34;23.40;99.90
21246;DHT22;10781;50.928;4.440;2023-06-26T00:51:59;23.30;99.90
21246;DHT22;10781;50.928;4.440;2023-06-26T00:54:25;23.30;99.90
21246;DHT22;10781;50.928;4.440;2023-06-26T00:56:51;23.10;99.90
21246;DHT22;10781;50.928;4.440;2023-06-26T00:59:17;23.10;99.90
21246;DHT22;10781;50.928;4.440;2023-06-26T01:01:42;23.10;99.90
21246;DHT22;10781;50.928;4.440;2023-06-26T01:04:08;22.90;99.90
21246;DHT22;10781;50.928;4.440;2023-06-26T01:06:45;22.70;99.90
21246;DHT22;10781;50.928;4.440;2023-06-26T01:09:17;22.70;99.90
21246;DHT22;10781;50.928;4.440;2023-06-26T01:11:43;22.50;99.90
21246;DHT22;10781;50.928;4.440;2023-06-26T01:14:09;22.50;99.90
21246;DHT22;10781;50.928;4.440;2023-06-26T01:16:35;22.40;99.90
21246;DHT22;10781;50.928;4.440;2023-06-26T01:19:04;22.30;99.90
21246;DHT22;10781;50.928;4.440;2023-06-26T01:21:32;22.20;99.90
21246;DHT22;10781;50.928;4.440;2023-06-26T01:24:07;22.10;99.90
21246;DHT22;10781;50.928;4.440;2023-06-26T01:26:36;22.20;99.90
21246;DHT22;10781;50.928;4.440;2023-06-26T01:29:04;22.00;99.90
21246;DHT22;10781;50.928;4.440;2023-06-26T01:31:32;22.00;99.90
21246;DHT22;10781;50.928;4.440;2023-06-26T01:33:59;22.00;99.90
21246;DHT22;10781;50.928;4.440;2023-06-26T01:36:26;22.00;99.90
21246;DHT22;10781;50.928;4.440;2023-06-26T01:38:52;22.10;99.90
21246;DHT22;10781;50.928;4.440;2023-06-26T01:41:19;22.10;99.90
21246;DHT22;10781;50.928;4.440;2023-06-26T01:44:07;22.10;99.90
21246;DHT22;10781;50.928;4.440;2023-06-26T01:46:53;22.00;99.90
21246;DHT22;10781;50.928;4.440;2023-06-26T01:49:49;22.00;99.90
21246;DHT22;10781;50.928;4.440;2023-06-26T01:52:21;22.10;99.90
21246;DHT22;10781;50.928;4.440;2023-06-26T01:55:00;22.10;99.90
21246;DHT22;10781;50.928;4.440;2023-06-26T01:57:27;22.10;99.90
21246;DHT22;10781;50.928;4.440;2023-06-26T01:59:55;22.20;99.90
21246;DHT22;10781;50.928;4.440;2023-06-26T02:02:23;22.00;99.90
21246;DHT22;10781;50.928;4.440;2023-06-26T02:04:50;21.90;99.90
21246;DHT22;10781;50.928;4.440;2023-06-26T02:07:15;22.10;99.90
21246;DHT22;10781;50.928;4.440;2023-06-26T02:09:41;22.10;99.90
21246;DHT22;10781;50.928;4.440;2023-06-26T02:12:07;21.90;99.90
21246;DHT22;10781;50.928;4.440;2023-06-26T02:14:33;21.80;99.90
21246;DHT22;10781;50.928;4.440;2023-06-26T02:16:59;21.60;99.90
21246;DHT22;10781;50.928;4.440;2023-06-26T02:19:26;21.60;99.90
21246;DHT22;10781;50.928;4.440;2023-06-26T02:21:56;21.60;99.90
21246;DHT22;10781;50.928;4.440;2023-06-26T02:24:22;21.50;99.90
21246;DHT22;10781;50.928;4.440;2023-06-26T02:26:47;21.50;99.90
21246;DHT22;10781;50.928;4.440;2023-06-26T02:29:14;21.40;99.90
21246;DHT22;10781;50.928;4.440;2023-06-26T02:31:40;21.40;99.90
21246;DHT22;10781;50.928;4.440;2023-06-26T02:34:06;21.50;99.90
21246;DHT22;10781;50.928;4.440;2023-06-26T02:36:32;21.40;99.90
21246;DHT22;10781;50.928;4.440;2023-06-26T02:38:57;21.40;99.90
21246;DHT22;10781;50.928;4.440;2023-06-26T02:41:23;21.30;99.90
21246;DHT22;10781;50.928;4.440;2023-06-26T02:43:49;21.20;99.90
21246;DHT22;10781;50.928;4.440;2023-06-26T02:46:14;21.30;99.90
21246;DHT22;10781;50.928;4.440;2023-06-26T02:48:40;21.30;99.90
21246;DHT22;10781;50.928;4.440;2023-06-26T02:51:07;21.40;99.90
21246;DHT22;10781;50.928;4.440;2023-06-26T02:53:33;21.30;99.90
21246;DHT22;10781;50.928;4.440;2023-06-26T02:55:59;21.30;99.90
21246;DHT22;10781;50.928;4.440;2023-06-26T02:58:24;21.20;99.90
21246;DHT22;10781;50.928;4.440;2023-06-26T03:00:50;21.20;99.90
21246;DHT22;10781;50.928;4.440;2023-06-26T03:03:16;21.10;99.90
21246;DHT22;10781;50.928;4.440;2023-06-26T03:05:42;21.00;99.90
21246;DHT22;10781;50.928;4.440;2023-06-26T03:08:07;20.90;99.90
21246;DHT22;10781;50.928;4.440;2023-06-26T03:10:33;20.70;99.90
21246;DHT22;10781;50.928;4.440;2023-06-26T03:12:59;20.60;99.90
21246;DHT22;10781;50.928;4.440;2023-06-26T03:15:24;20.60;99.90
21246;DHT22;10781;50.928;4.440;2023-06-26T03:17:50;20.50;99.90
21246;DHT22;10781;50.928;4.440;2023-06-26T03:20:16;20.40;99.90
21246;DHT22;10781;50.928;4.440;2023-06-26T03:22:41;20.40;99.90
21246;DHT22;10781;50.928;4.440;2023-06-26T03:25:07;20.40;99.90
21246;DHT22;10781;50.928;4.440;2023-06-26T03:27:33;20.30;99.90
21246;DHT22;10781;50.928;4.440;2023-06-26T03:29:58;20.40;99.90
21246;DHT22;10781;50.928;4.440;2023-06-26T03:32:24;20.30;99.90
21246;DHT22;10781;50.928;4.440;2023-06-26T03:34:50;20.20;99.90
21246;DHT22;10781;50.928;4.440;2023-06-26T03:37:15;20.10;99.90
21246;DHT22;10781;50.928;4.440;2023-06-26T03:39:41;20.00;99.90
21246;DHT22;10781;50.928;4.440;2023-06-26T03:42:07;20.00;99.90
21246;DHT22;10781;50.928;4.440;2023-06-26T03:44:32;20.00;99.90
21246;DHT22;10781;50.928;4.440;2023-06-26T03:46:58;19.80;99.90
21246;DHT22;10781;50.928;4.440;2023-06-26T03:49:24;19.80;99.90
21246;DHT22;10781;50.928;4.440;2023-06-26T03:51:49;19.80;99.90
21246;DHT22;10781;50.928;4.440;2023-06-26T03:54:15;19.80;99.90
21246;DHT22;10781;50.928;4.440;2023-06-26T03:56:40;19.90;99.90
21246;DHT22;10781;50.928;4.440;2023-06-26T03:59:06;19.80;99.90
21246;DHT22;10781;50.928;4.440;2023-06-26T04:01:32;19.80;99.90
21246;DHT22;10781;50.928;4.440;2023-06-26T04:03:59;19.90;99.90
21246;DHT22;10781;50.928;4.440;2023-06-26T04:06:25;19.90;99.90
21246;DHT22;10781;50.928;4.440;2023-06-26T04:08:51;19.90;99.90
21246;DHT22;10781;50.928;4.440;2023-06-26T04:11:16;20.00;99.90
21246;DHT22;10781;50.928;4.440;2023-06-26T04:13:42;20.00;99.90
21246;DHT22;10781;50.928;4.440;2023-06-26T04:16:08;20.00;99.90
21246;DHT22;10781;50.928;4.440;2023-06-26T04:18:33;19.80;99.90
21246;DHT22;10781;50.928;4.440;2023-06-26T04:21:10;19.80;99.90
21246;DHT22;10781;50.928;4.440;2023-06-26T04:23:37;19.90;99.90
21246;DHT22;10781;50.928;4.440;2023-06-26T04:26:06;19.90;99.90
21246;DHT22;10781;50.928;4.440;2023-06-26T04:28:33;19.80;99.90
21246;DHT22;10781;50.928;4.440;2023-06-26T04:31:00;19.80;99.90
21246;DHT22;10781;50.928;4.440;2023-06-26T04:33:26;19.70;99.90
21246;DHT22;10781;50.928;4.440;2023-06-26T04:35:55;19.70;99.90
21246;DHT22;10781;50.928;4.440;2023-06-26T04:38:20;19.70;99.90
21246;DHT22;10781;50.928;4.440;2023-06-26T04:40:47;19.90;99.90
21246;DHT22;10781;50.928;4.440;2023-06-26T04:43:13;20.00;99.90
21246;DHT22;10781;50.928;4.440;2023-06-26T04:45:38;19.80;99.90
21246;DHT22;10781;50.928;4.440;2023-06-26T04:48:04;19.70;99.90
21246;DHT22;10781;50.928;4.440;2023-06-26T04:50:31;19.70;99.90
21246;DHT22;10781;50.928;4.440;2023-06-26T04:52:57;19.70;99.90
21246;DHT22;10781;50.928;4.440;2023-06-26T04:55:26;19.70;99.90
21246;DHT22;10781;50.928;4.440;2023-06-26T04:57:51;19.70;99.90
21246;DHT22;10781;50.928;4.440;2023-06-26T05:00:17;19.60;99.90
21246;DHT22;10781;50.928;4.440;2023-06-26T05:02:43;19.70;99.90
21246;DHT22;10781;50.928;4.440;2023-06-26T05:05:09;19.70;99.90
21246;DHT22;10781;50.928;4.440;2023-06-26T05:07:36;19.80;99.90
21246;DHT22;10781;50.928;4.440;2023-06-26T05:10:02;19.80;99.90
21246;DHT22;10781;50.928;4.440;2023-06-26T05:12:27;19.90;99.90
21246;DHT22;10781;50.928;4.440;2023-06-26T05:14:53;19.90;99.90
21246;DHT22;10781;50.928;4.440;2023-06-26T05:17:19;19.70;99.90
21246;DHT22;10781;50.928;4.440;2023-06-26T05:19:44;19.70;99.90
21246;DHT22;10781;50.928;4.440;2023-06-26T05:22:11;19.80;99.90
21246;DHT22;10781;50.928;4.440;2023-06-26T05:24:38;19.80;99.90
21246;DHT22;10781;50.928;4.440;2023-06-26T05:27:04;19.80;99.90
21246;DHT22;10781;50.928;4.440;2023-06-26T05:29:32;19.90;99.90
21246;DHT22;10781;50.928;4.440;2023-06-26T05:31:58;19.90;99.90
21246;DHT22;10781;50.928;4.440;2023-06-26T05:34:24;20.00;99.90
21246;DHT22;10781;50.928;4.440;2023-06-26T05:36:51;20.20;99.90
21246;DHT22;10781;50.928;4.440;2023-06-26T05:39:17;20.00;99.90
21246;DHT22;10781;50.928;4.440;2023-06-26T05:41:44;20.00;99.90
21246;DHT22;10781;50.928;4.440;2023-06-26T05:44:10;20.10;99.90
21246;DHT22;10781;50.928;4.440;2023-06-26T05:46:36;20.00;99.90
21246;DHT22;10781;50.928;4.440;2023-06-26T05:49:01;20.10;99.90
21246;DHT22;10781;50.928;4.440;2023-06-26T05:51:28;20.00;99.90
21246;DHT22;10781;50.928;4.440;2023-06-26T05:53:54;19.80;99.90
21246;DHT22;10781;50.928;4.440;2023-06-26T05:56:20;19.80;99.90
21246;DHT22;10781;50.928;4.440;2023-06-26T05:58:46;20.00;99.90
21246;DHT22;10781;50.928;4.440;2023-06-26T06:01:11;19.90;99.90
21246;DHT22;10781;50.928;4.440;2023-06-26T06:03:38;19.90;99.90
21246;DHT22;10781;50.928;4.440;2023-06-26T06:06:04;20.10;99.90
21246;DHT22;10781;50.928;4.440;2023-06-26T06:08:30;20.20;99.90
21246;DHT22;10781;50.928;4.440;2023-06-26T06:10:55;20.30;99.90
21246;DHT22;10781;50.928;4.440;2023-06-26T06:13:21;20.40;99.90
21246;DHT22;10781;50.928;4.440;2023-06-26T06:15:47;20.60;99.90
21246;DHT22;10781;50.928;4.440;2023-06-26T06:18:12;20.60;99.90
21246;DHT22;10781;50.928;4.440;2023-06-26T06:20:38;20.50;99.90
21246;DHT22;10781;50.928;4.440;2023-06-26T06:23:04;20.50;99.90
21246;DHT22;10781;50.928;4.440;2023-06-26T06:25:29;20.50;99.90
21246;DHT22;10781;50.928;4.440;2023-06-26T06:27:55;20.60;99.90
21246;DHT22;10781;50.928;4.440;2023-06-26T06:30:21;20.80;99.90
21246;DHT22;10781;50.928;4.440;2023-06-26T06:32:49;20.80;99.90
21246;DHT22;10781;50.928;4.440;2023-06-26T06:35:20;20.80;99.90
21246;DHT22;10781;50.928;4.440;2023-06-26T06:37:46;20.90;99.90
21246;DHT22;10781;50.928;4.440;2023-06-26T06:40:12;21.00;99.90
21246;DHT22;10781;50.928;4.440;2023-06-26T06:42:38;21.30;99.90
21246;DHT22;10781;50.928;4.440;2023-06-26T06:45:04;21.30;99.90
21246;DHT22;10781;50.928;4.440;2023-06-26T06:47:32;21.30;99.90
21246;DHT22;10781;50.928;4.440;2023-06-26T06:49:57;21.10;99.90
21246;DHT22;10781;50.928;4.440;2023-06-26T06:52:24;21.10;99.90
21246;DHT22;10781;50.928;4.440;2023-06-26T06:54:54;21.30;99.90
21246;DHT22;10781;50.928;4.440;2023-06-26T06:57:23;21.50;99.90
21246;DHT22;10781;50.928;4.440;2023-06-26T06:59:49;21.60;99.90
21246;DHT22;10781;50.928;4.440;2023-06-26T07:02:17;21.80;99.90
21246;DHT22;10781;50.928;4.440;2023-06-26T07:04:43;21.80;99.90
21246;DHT22;10781;50.928;4.440;2023-06-26T07:07:08;21.90;99.90
21246;DHT22;10781;50.928;4.440;2023-06-26T07:09:35;22.10;99.90
21246;DHT22;10781;50.928;4.440;2023-06-26T07:12:01;22.10;99.90
21246;DHT22;10781;50.928;4.440;2023-06-26T07:14:28;22.20;99.90
21246;DHT22;10781;50.928;4.440;2023-06-26T07:16:53;22.00;99.90
21246;DHT22;10781;50.928;4.440;2023-06-26T07:19:19;22.00;99.90
21246;DHT22;10781;50.928;4.440;2023-06-26T07:21:45;22.00;99.90
21246;DHT22;10781;50.928;4.440;2023-06-26T07:24:11;22.10;99.90
21246;DHT22;10781;50.928;4.440;2023-06-26T07:26:37;22.10;99.90
21246;DHT22;10781;50.928;4.440;2023-06-26T07:29:03;22.30;99.90
21246;DHT22;10781;50.928;4.440;2023-06-26T07:31:29;22.70;99.90
21246;DHT22;10781;50.928;4.440;2023-06-26T07:33:55;22.90;99.90
21246;DHT22;10781;50.928;4.440;2023-06-26T07:36:21;23.30;99.90
21246;DHT22;10781;50.928;4.440;2023-06-26T07:38:48;24.00;99.90
21246;DHT22;10781;50.928;4.440;2023-06-26T07:41:14;25.10;99.90
21246;DHT22;10781;50.928;4.440;2023-06-26T07:43:39;25.80;99.90
21246;DHT22;10781;50.928;4.440;2023-06-26T07:46:05;26.70;99.90
21246;DHT22;10781;50.928;4.440;2023-06-26T07:48:30;27.30;99.90
21246;DHT22;10781;50.928;4.440;2023-06-26T07:50:56;26.80;99.90
21246;DHT22;10781;50.928;4.440;2023-06-26T07:53:22;26.90;99.90
21246;DHT22;10781;50.928;4.440;2023-06-26T07:55:47;27.20;99.90
21246;DHT22;10781;50.928;4.440;2023-06-26T07:58:13;28.40;99.90
21246;DHT22;10781;50.928;4.440;2023-06-26T08:00:40;29.20;99.90
21246;DHT22;10781;50.928;4.440;2023-06-26T08:03:06;29.70;99.90
21246;DHT22;10781;50.928;4.440;2023-06-26T08:05:32;29.40;99.90
21246;DHT22;10781;50.928;4.440;2023-06-26T08:07:58;29.50;99.90
21246;DHT22;10781;50.928;4.440;2023-06-26T08:10:23;29.40;99.90
21246;DHT22;10781;50.928;4.440;2023-06-26T08:12:49;29.80;98.80
21246;DHT22;10781;50.928;4.440;2023-06-26T08:15:16;29.80;97.70
21246;DHT22;10781;50.928;4.440;2023-06-26T08:17:41;29.70;98.00
21246;DHT22;10781;50.928;4.440;2023-06-26T08:20:07;30.20;96.90
21246;DHT22;10781;50.928;4.440;2023-06-26T08:22:33;30.10;96.90
21246;DHT22;10781;50.928;4.440;2023-06-26T08:24:59;30.40;95.90
21246;DHT22;10781;50.928;4.440;2023-06-26T08:27:25;31.20;95.40
21246;DHT22;10781;50.928;4.440;2023-06-26T08:29:51;30.90;94.20
21246;DHT22;10781;50.928;4.440;2023-06-26T08:32:16;31.30;94.20
21246;DHT22;10781;50.928;4.440;2023-06-26T08:34:42;30.70;92.50
21246;DHT22;10781;50.928;4.440;2023-06-26T08:37:08;30.80;92.90
21246;DHT22;10781;50.928;4.440;2023-06-26T08:39:36;30.90;91.50
21246;DHT22;10781;50.928;4.440;2023-06-26T08:42:02;31.40;91.30
21246;DHT22;10781;50.928;4.440;2023-06-26T08:44:27;31.60;90.40
21246;DHT22;10781;50.928;4.440;2023-06-26T08:46:53;31.40;89.90
21246;DHT22;10781;50.928;4.440;2023-06-26T08:49:42;30.40;90.30
21246;DHT22;10781;50.928;4.440;2023-06-26T08:52:27;29.50;92.60
21246;DHT22;10781;50.928;4.440;2023-06-26T08:54:59;30.40;91.70
21246;DHT22;10781;50.928;4.440;2023-06-26T08:57:26;30.20;90.40
21246;DHT22;10781;50.928;4.440;2023-06-26T08:59:52;29.90;90.00
21246;DHT22;10781;50.928;4.440;2023-06-26T09:02:19;30.00;90.80
21246;DHT22;10781;50.928;4.440;2023-06-26T09:04:49;30.00;90.30
21246;DHT22;10781;50.928;4.440;2023-06-26T09:07:16;30.70;89.50
21246;DHT22;10781;50.928;4.440;2023-06-26T09:09:41;30.30;88.20
21246;DHT22;10781;50.928;4.440;2023-06-26T09:12:09;29.50;87.10
21246;DHT22;10781;50.928;4.440;2023-06-26T09:14:37;29.80;88.30
21246;DHT22;10781;50.928;4.440;2023-06-26T09:17:03;30.70;83.90
21246;DHT22;10781;50.928;4.440;2023-06-26T09:19:28;30.30;84.40
21246;DHT22;10781;50.928;4.440;2023-06-26T09:21:54;30.40;87.90
21246;DHT22;10781;50.928;4.440;2023-06-26T09:24:21;30.10;86.10
21246;DHT22;10781;50.928;4.440;2023-06-26T09:26:48;29.70;86.50
21246;DHT22;10781;50.928;4.440;2023-06-26T09:29:14;30.30;87.10
21246;DHT22;10781;50.928;4.440;2023-06-26T09:31:40;31.10;79.60
21246;DHT22;10781;50.928;4.440;2023-06-26T09:34:06;30.80;79.40
21246;DHT22;10781;50.928;4.440;2023-06-26T09:36:33;30.50;80.90
21246;DHT22;10781;50.928;4.440;2023-06-26T09:39:03;31.00;79.90
21246;DHT22;10781;50.928;4.440;2023-06-26T09:41:30;29.80;82.90
21246;DHT22;10781;50.928;4.440;2023-06-26T09:44:01;30.10;83.50
21246;DHT22;10781;50.928;4.440;2023-06-26T09:46:28;31.00;81.40
21246;DHT22;10781;50.928;4.440;2023-06-26T09:49:06;30.30;76.80
21246;DHT22;10781;50.928;4.440;2023-06-26T09:51:34;29.40;77.50
21246;DHT22;10781;50.928;4.440;2023-06-26T09:54:01;29.40;76.60
21246;DHT22;10781;50.928;4.440;2023-06-26T09:56:28;29.80;75.10
21246;DHT22;10781;50.928;4.440;2023-06-26T09:58:57;30.40;73.00
21246;DHT22;10781;50.928;4.440;2023-06-26T10:01:27;30.90;74.30
21246;DHT22;10781;50.928;4.440;2023-06-26T10:03:57;33.00;71.10
21246;DHT22;10781;50.928;4.440;2023-06-26T10:06:37;33.00;66.40
21246;DHT22;10781;50.928;4.440;2023-06-26T10:09:04;33.80;64.70
21246;DHT22;10781;50.928;4.440;2023-06-26T10:11:41;34.10;63.10
21246;DHT22;10781;50.928;4.440;2023-06-26T10:14:11;34.30;62.70
21246;DHT22;10781;50.928;4.440;2023-06-26T10:16:38;34.60;59.70
21246;DHT22;10781;50.928;4.440;2023-06-26T10:19:07;33.80;60.30
21246;DHT22;10781;50.928;4.440;2023-06-26T10:21:34;33.60;59.80
21246;DHT22;10781;50.928;4.440;2023-06-26T10:24:03;33.70;56.90
21246;DHT22;10781;50.928;4.440;2023-06-26T10:26:30;33.20;59.40
21246;DHT22;10781;50.928;4.440;2023-06-26T10:28:57;33.70;59.40
21246;DHT22;10781;50.928;4.440;2023-06-26T10:31:26;34.50;58.00
21246;DHT22;10781;50.928;4.440;2023-06-26T10:33:52;35.80;57.70
21246;DHT22;10781;50.928;4.440;2023-06-26T10:36:20;35.10;54.60
21246;DHT22;10781;50.928;4.440;2023-06-26T10:38:54;33.80;54.90
21246;DHT22;10781;50.928;4.440;2023-06-26T10:41:22;33.20;56.40
21246;DHT22;10781;50.928;4.440;2023-06-26T10:44:08;34.00;57.10
21246;DHT22;10781;50.928;4.440;2023-06-26T10:46:49;34.10;55.90
21246;DHT22;10781;50.928;4.440;2023-06-26T10:49:15;33.80;55.80
21246;DHT22;10781;50.928;4.440;2023-06-26T10:51:49;34.20;55.80
21246;DHT22;10781;50.928;4.440;2023-06-26T10:54:16;34.20;55.40
21246;DHT22;10781;50.928;4.440;2023-06-26T10:56:45;33.70;57.10
21246;DHT22;10781;50.928;4.440;2023-06-26T10:59:18;32.50;55.50
21246;DHT22;10781;50.928;4.440;2023-06-26T11:01:46;32.60;57.00
21246;DHT22;10781;50.928;4.440;2023-06-26T11:04:13;33.50;54.90
21246;DHT22;10781;50.928;4.440;2023-06-26T11:06:44;34.10;55.00
21246;DHT22;10781;50.928;4.440;2023-06-26T11:09:14;33.70;54.70
21246;DHT22;10781;50.928;4.440;2023-06-26T11:14:25;33.70;51.90
21246;DHT22;10781;50.928;4.440;2023-06-26T11:16:52;34.00;51.00
21246;DHT22;10781;50.928;4.440;2023-06-26T11:19:19;33.50;49.50
21246;DHT22;10781;50.928;4.440;2023-06-26T11:21:45;31.80;51.40
21246;DHT22;10781;50.928;4.440;2023-06-26T11:24:12;32.00;51.80
21246;DHT22;10781;50.928;4.440;2023-06-26T11:26:41;32.60;52.60
21246;DHT22;10781;50.928;4.440;2023-06-26T11:29:08;32.20;52.70
21246;DHT22;10781;50.928;4.440;2023-06-26T11:31:37;31.40;54.10
21246;DHT22;10781;50.928;4.440;2023-06-26T11:34:08;30.70;54.20
21246;DHT22;10781;50.928;4.440;2023-06-26T11:36:36;30.40;55.20
21246;DHT22;10781;50.928;4.440;2023-06-26T11:39:06;31.10;55.10
21246;DHT22;10781;50.928;4.440;2023-06-26T11:41:37;31.80;55.20
21246;DHT22;10781;50.928;4.440;2023-06-26T11:44:10;33.20;54.10
21246;DHT22;10781;50.928;4.440;2023-06-26T11:46:39;32.80;53.70
21246;DHT22;10781;50.928;4.440;2023-06-26T11:49:06;33.10;52.80
21246;DHT22;10781;50.928;4.440;2023-06-26T11:51:32;33.50;53.40
21246;DHT22;10781;50.928;4.440;2023-06-26T11:54:00;33.90;50.10
21246;DHT22;10781;50.928;4.440;2023-06-26T11:56:26;34.70;50.70
21246;DHT22;10781;50.928;4.440;2023-06-26T12:01:41;33.00;51.30
21246;DHT22;10781;50.928;4.440;2023-06-26T12:04:09;32.00;51.80
21246;DHT22;10781;50.928;4.440;2023-06-26T12:06:41;31.50;54.60
21246;DHT22;10781;50.928;4.440;2023-06-26T12:09:09;33.10;54.10
21246;DHT22;10781;50.928;4.440;2023-06-26T12:11:37;33.70;51.90
21246;DHT22;10781;50.928;4.440;2023-06-26T12:14:05;33.50;52.00
21246;DHT22;10781;50.928;4.440;2023-06-26T12:16:33;33.00;51.70
21246;DHT22;10781;50.928;4.440;2023-06-26T12:19:03;32.50;53.10
21246;DHT22;10781;50.928;4.440;2023-06-26T12:24:08;32.90;51.30
21246;DHT22;10781;50.928;4.440;2023-06-26T12:26:35;34.40;49.70
21246;DHT22;10781;50.928;4.440;2023-06-26T12:29:08;35.00;48.80
21246;DHT22;10781;50.928;4.440;2023-06-26T12:31:34;35.90;47.50
21246;DHT22;10781;50.928;4.440;2023-06-26T12:34:01;36.00;47.90
21246;DHT22;10781;50.928;4.440;2023-06-26T12:36:27;35.80;47.00
21246;DHT22;10781;50.928;4.440;2023-06-26T12:38:54;34.40;47.70
21246;DHT22;10781;50.928;4.440;2023-06-26T12:41:20;34.60;48.50
21246;DHT22;10781;50.928;4.440;2023-06-26T12:43:46;35.50;48.30
21246;DHT22;10781;50.928;4.440;2023-06-26T12:46:12;36.10;46.80
21246;DHT22;10781;50.928;4.440;2023-06-26T12:48:41;35.30;47.10
21246;DHT22;10781;50.928;4.440;2023-06-26T12:51:16;35.80;47.30
21246;DHT22;10781;50.928;4.440;2023-06-26T12:53:42;35.50;46.00
21246;DHT22;10781;50.928;4.440;2023-06-26T12:56:08;34.60;48.30
21246;DHT22;10781;50.928;4.440;2023-06-26T12:58:35;34.40;47.70
21246;DHT22;10781;50.928;4.440;2023-06-26T13:01:06;34.60;47.60
21246;DHT22;10781;50.928;4.440;2023-06-26T13:03:40;33.70;48.80
21246;DHT22;10781;50.928;4.440;2023-06-26T13:06:06;34.00;48.40
21246;DHT22;10781;50.928;4.440;2023-06-26T13:08:33;34.90;47.40
21246;DHT22;10781;50.928;4.440;2023-06-26T13:10:59;33.40;48.20
21246;DHT22;10781;50.928;4.440;2023-06-26T13:13:24;32.70;49.70
21246;DHT22;10781;50.928;4.440;2023-06-26T13:15:51;31.60;50.80
21246;DHT22;10781;50.928;4.440;2023-06-26T13:18:17;30.90;51.90
21246;DHT22;10781;50.928;4.440;2023-06-26T13:20:42;30.10;52.60
21246;DHT22;10781;50.928;4.440;2023-06-26T13:23:08;30.20;53.60
21246;DHT22;10781;50.928;4.440;2023-06-26T13:25:34;30.70;53.20
21246;DHT22;10781;50.928;4.440;2023-06-26T13:27:59;31.80;53.30
21246;DHT22;10781;50.928;4.440;2023-06-26T13:30:25;33.30;51.50
21246;DHT22;10781;50.928;4.440;2023-06-26T13:32:51;34.90;50.20
21246;DHT22;10781;50.928;4.440;2023-06-26T13:35:16;35.70;49.40
21246;DHT22;10781;50.928;4.440;2023-06-26T13:37:42;34.70;50.00
21246;DHT22;10781;50.928;4.440;2023-06-26T13:40:08;34.20;48.80
21246;DHT22;10781;50.928;4.440;2023-06-26T13:42:35;34.80;49.60
21246;DHT22;10781;50.928;4.440;2023-06-26T13:45:02;35.50;46.40
21246;DHT22;10781;50.928;4.440;2023-06-26T13:47:28;36.20;47.50
21246;DHT22;10781;50.928;4.440;2023-06-26T13:49:54;36.20;45.30
21246;DHT22;10781;50.928;4.440;2023-06-26T13:52:20;35.00;45.40
21246;DHT22;10781;50.928;4.440;2023-06-26T13:54:46;34.70;46.40
21246;DHT22;10781;50.928;4.440;2023-06-26T13:57:11;33.80;48.10
21246;DHT22;10781;50.928;4.440;2023-06-26T13:59:38;33.30;48.20
21246;DHT22;10781;50.928;4.440;2023-06-26T14:02:08;32.40;49.50
21246;DHT22;10781;50.928;4.440;2023-06-26T14:04:33;31.60;50.80
21246;DHT22;10781;50.928;4.440;2023-06-26T14:06:59;31.30;51.70
21246;DHT22;10781;50.928;4.440;2023-06-26T14:09:25;31.70;52.10
21246;DHT22;10781;50.928;4.440;2023-06-26T14:11:50;32.50;50.50
21246;DHT22;10781;50.928;4.440;2023-06-26T14:14:16;32.90;50.40
21246;DHT22;10781;50.928;4.440;2023-06-26T14:16:42;32.80;50.60
21246;DHT22;10781;50.928;4.440;2023-06-26T14:19:08;33.50;50.10
21246;DHT22;10781;50.928;4.440;2023-06-26T14:21:39;33.30;49.40
21246;DHT22;10781;50.928;4.440;2023-06-26T14:24:06;32.40;50.60
21246;DHT22;10781;50.928;4.440;2023-06-26T14:26:31;31.80;51.50
21246;DHT22;10781;50.928;4.440;2023-06-26T14:28:59;31.50;51.10
21246;DHT22;10781;50.928;4.440;2023-06-26T14:31:25;31.20;52.90
21246;DHT22;10781;50.928;4.440;2023-06-26T14:33:51;30.60;52.30
21246;DHT22;10781;50.928;4.440;2023-06-26T14:36:17;30.00;53.70
21246;DHT22;10781;50.928;4.440;2023-06-26T14:38:42;29.60;53.90
21246;DHT22;10781;50.928;4.440;2023-06-26T14:41:08;29.30;55.10
21246;DHT22;10781;50.928;4.440;2023-06-26T14:43:34;29.00;55.40
21246;DHT22;10781;50.928;4.440;2023-06-26T14:45:59;28.90;55.30
21246;DHT22;10781;50.928;4.440;2023-06-26T14:48:25;29.00;55.70
21246;DHT22;10781;50.928;4.440;2023-06-26T14:50:50;28.70;55.50
21246;DHT22;10781;50.928;4.440;2023-06-26T14:53:17;28.70;56.40
21246;DHT22;10781;50.928;4.440;2023-06-26T14:55:42;28.80;56.60
21246;DHT22;10781;50.928;4.440;2023-06-26T14:58:08;28.90;56.30
21246;DHT22;10781;50.928;4.440;2023-06-26T15:00:33;28.60;56.20
21246;DHT22;10781;50.928;4.440;2023-06-26T15:02:59;28.90;56.80
21246;DHT22;10781;50.928;4.440;2023-06-26T15:05:25;28.70;55.60
21246;DHT22;10781;50.928;4.440;2023-06-26T15:07:50;28.60;56.90
21246;DHT22;10781;50.928;4.440;2023-06-26T15:10:16;28.50;56.10
21246;DHT22;10781;50.928;4.440;2023-06-26T15:12:42;28.70;56.80
21246;DHT22;10781;50.928;4.440;2023-06-26T15:15:09;28.80;57.30
21246;DHT22;10781;50.928;4.440;2023-06-26T15:17:34;29.20;56.80
21246;DHT22;10781;50.928;4.440;2023-06-26T15:20:00;29.20;56.40
21246;DHT22;10781;50.928;4.440;2023-06-26T15:22:26;29.00;56.40
21246;DHT22;10781;50.928;4.440;2023-06-26T15:24:53;29.00;56.20
21246;DHT22;10781;50.928;4.440;2023-06-26T15:27:19;28.70;56.80
21246;DHT22;10781;50.928;4.440;2023-06-26T15:29:44;28.70;56.80
21246;DHT22;10781;50.928;4.440;2023-06-26T15:32:10;28.50;56.50
21246;DHT22;10781;50.928;4.440;2023-06-26T15:34:36;28.50;56.80
21246;DHT22;10781;50.928;4.440;2023-06-26T15:37:02;28.30;56.80